sensor_id;sensor_type;location;lat;lon;timestamp;temperature;humidity
18781;DHT22;9519;51.890;8.970;2022-10-16T00:00:57;14.50;99.90
18781;DHT22;9519;51.890;8.970;2022-10-16T00:06:00;14.50;99.90
18781;DHT22;9519;51.890;8.970;2022-10-16T00:11:04;14.50;99.90
18781;DHT22;9519;51.890;8.970;2022-10-16T00:16:10;14.50;99.90
18781;DHT22;9519;51.890;8.970;2022-10-16T00:21:16;14.50;99.90
18781;DHT22;9519;51.890;8.970;2022-10-16T00:26:20;14.40;99.90
18781;DHT22;9519;51.890;8.970;2022-10-16T00:31:24;14.40;99.90
18781;DHT22;9519;51.890;8.970;2022-10-16T00:36:26;14.40;99.90
18781;DHT22;9519;51.890;8.970;2022-10-16T00:41:29;14.40;99.90
18781;DHT22;9519;51.890;8.970;2022-10-16T00:46:37;14.30;99.90
18781;DHT22;9519;51.890;8.970;2022-10-16T00:51:42;14.30;99.90
18781;DHT22;9519;51.890;8.970;2022-10-16T00:56:47;14.30;99.90
18781;DHT22;9519;51.890;8.970;2022-10-16T01:01:52;14.30;99.90
18781;DHT22;9519;51.890;8.970;2022-10-16T01:07:01;14.20;99.90
18781;DHT22;9519;51.890;8.970;2022-10-16T01:12:14;14.20;99.90
18781;DHT22;9519;51.890;8.970;2022-10-16T01:17:24;14.10;99.90
18781;DHT22;9519;51.890;8.970;2022-10-16T01:22:38;14.10;99.90
18781;DHT22;9519;51.890;8.970;2022-10-16T01:27:47;14.10;99.90
18781;DHT22;9519;51.890;8.970;2022-10-16T01:32:55;14.00;99.90
18781;DHT22;9519;51.890;8.970;2022-10-16T01:38:04;14.00;99.90
18781;DHT22;9519;51.890;8.970;2022-10-16T01:43:13;14.00;99.90
18781;DHT22;9519;51.890;8.970;2022-10-16T01:48:19;14.00;99.90
18781;DHT22;9519;51.890;8.970;2022-10-16T01:53:24;14.00;99.90
18781;DHT22;9519;51.890;8.970;2022-10-16T01:58:30;14.00;99.90
18781;DHT22;9519;51.890;8.970;2022-10-16T02:03:37;14.00;99.90
18781;DHT22;9519;51.890;8.970;2022-10-16T02:08:43;14.00;99.90
18781;DHT22;9519;51.890;8.970;2022-10-16T02:13:50;14.00;99.90
18781;DHT22;9519;51.890;8.970;2022-10-16T02:18:56;14.00;99.90
18781;DHT22;9519;51.890;8.970;2022-10-16T02:24:03;13.90;99.90
18781;DHT22;9519;51.890;8.970;2022-10-16T02:29:14;13.90;99.90
18781;DHT22;9519;51.890;8.970;2022-10-16T02:34:21;13.80;99.90
18781;DHT22;9519;51.890;8.970;2022-10-16T02:39:27;13.80;99.90
18781;DHT22;9519;51.890;8.970;2022-10-16T02:44:31;13.70;99.90
18781;DHT22;9519;51.890;8.970;2022-10-16T02:49:33;13.60;99.90
18781;DHT22;9519;51.890;8.970;2022-10-16T02:54:35;13.60;99.90
18781;DHT22;9519;51.890;8.970;2022-10-16T02:59:39;13.50;99.90
18781;DHT22;9519;51.890;8.970;2022-10-16T03:04:41;13.50;99.90
18781;DHT22;9519;51.890;8.970;2022-10-16T03:09:43;13.50;99.90
18781;DHT22;9519;51.890;8.970;2022-10-16T03:14:47;13.50;99.90
18781;DHT22;9519;51.890;8.970;2022-10-16T03:19:49;13.50;99.90
18781;DHT22;9519;51.890;8.970;2022-10-16T03:24:51;13.40;99.90
18781;DHT22;9519;51.890;8.970;2022-10-16T03:29:55;13.40;99.90
18781;DHT22;9519;51.890;8.970;2022-10-16T03:34:57;13.50;99.90
18781;DHT22;9519;51.890;8.970;2022-10-16T03:39:59;13.50;99.90
18781;DHT22;9519;51.890;8.970;2022-10-16T03:45:03;13.60;99.90
18781;DHT22;9519;51.890;8.970;2022-10-16T03:50:07;13.60;99.90
18781;DHT22;9519;51.890;8.970;2022-10-16T03:55:09;13.60;99.90
18781;DHT22;9519;51.890;8.970;2022-10-16T04:00:13;13.60;99.90
18781;DHT22;9519;51.890;8.970;2022-10-16T04:05:15;13.60;99.90
18781;DHT22;9519;51.890;8.970;2022-10-16T04:10:17;13.50;99.90
18781;DHT22;9519;51.890;8.970;2022-10-16T04:15:22;13.50;99.90
18781;DHT22;9519;51.890;8.970;2022-10-16T04:20:25;13.50;99.90
18781;DHT22;9519;51.890;8.970;2022-10-16T04:25:27;13.50;99.90
18781;DHT22;9519;51.890;8.970;2022-10-16T04:30:30;13.50;99.90
18781;DHT22;9519;51.890;8.970;2022-10-16T04:35:34;13.50;99.90
18781;DHT22;9519;51.890;8.970;2022-10-16T04:40:36;13.50;99.90
18781;DHT22;9519;51.890;8.970;2022-10-16T04:45:39;13.40;99.90
18781;DHT22;9519;51.890;8.970;2022-10-16T04:50:41;13.40;99.90
18781;DHT22;9519;51.890;8.970;2022-10-16T04:55:43;13.40;99.90
18781;DHT22;9519;51.890;8.970;2022-10-16T05:00:47;13.40;99.90
18781;DHT22;9519;51.890;8.970;2022-10-16T05:05:49;13.40;99.90
18781;DHT22;9519;51.890;8.970;2022-10-16T05:10:51;13.40;99.90
18781;DHT22;9519;51.890;8.970;2022-10-16T05:15:55;13.40;99.90
18781;DHT22;9519;51.890;8.970;2022-10-16T05:20:57;13.40;99.90
18781;DHT22;9519;51.890;8.970;2022-10-16T05:25:59;13.40;99.90
18781;DHT22;9519;51.890;8.970;2022-10-16T05:31:05;13.40;99.90
18781;DHT22;9519;51.890;8.970;2022-10-16T05:36:09;13.40;99.90
18781;DHT22;9519;51.890;8.970;2022-10-16T05:41:11;13.30;99.90
18781;DHT22;9519;51.890;8.970;2022-10-16T05:46:15;13.40;99.90
18781;DHT22;9519;51.890;8.970;2022-10-16T05:51:18;13.40;99.90
18781;DHT22;9519;51.890;8.970;2022-10-16T05:56:20;13.40;99.90
18781;DHT22;9519;51.890;8.970;2022-10-16T06:01:23;13.50;99.90
18781;DHT22;9519;51.890;8.970;2022-10-16T06:06:27;13.50;99.90
18781;DHT22;9519;51.890;8.970;2022-10-16T06:11:31;13.50;99.90
18781;DHT22;9519;51.890;8.970;2022-10-16T06:16:37;13.50;99.90
18781;DHT22;9519;51.890;8.970;2022-10-16T06:21:39;13.50;99.90
18781;DHT22;9519;51.890;8.970;2022-10-16T06:26:42;13.50;99.90
18781;DHT22;9519;51.890;8.970;2022-10-16T06:31:45;13.50;99.90
18781;DHT22;9519;51.890;8.970;2022-10-16T06:36:47;13.50;99.90
18781;DHT22;9519;51.890;8.970;2022-10-16T06:41:49;13.50;99.90
18781;DHT22;9519;51.890;8.970;2022-10-16T06:46:52;13.50;99.90
18781;DHT22;9519;51.890;8.970;2022-10-16T06:51:54;13.60;99.90
18781;DHT22;9519;51.890;8.970;2022-10-16T06:56:56;13.60;99.90
18781;DHT22;9519;51.890;8.970;2022-10-16T07:02:01;13.70;99.90
18781;DHT22;9519;51.890;8.970;2022-10-16T07:07:03;13.70;99.90
18781;DHT22;9519;51.890;8.970;2022-10-16T07:12:06;13.80;99.90
18781;DHT22;9519;51.890;8.970;2022-10-16T07:17:09;13.80;99.90
18781;DHT22;9519;51.890;8.970;2022-10-16T07:22:11;13.90;99.90
18781;DHT22;9519;51.890;8.970;2022-10-16T07:27:13;14.00;99.90
18781;DHT22;9519;51.890;8.970;2022-10-16T07:32:18;14.20;99.90
18781;DHT22;9519;51.890;8.970;2022-10-16T07:37:20;14.30;99.90
18781;DHT22;9519;51.890;8.970;2022-10-16T07:42:22;14.50;99.90
18781;DHT22;9519;51.890;8.970;2022-10-16T07:47:26;14.60;99.90
18781;DHT22;9519;51.890;8.970;2022-10-16T07:52:28;14.80;99.90
18781;DHT22;9519;51.890;8.970;2022-10-16T07:57:30;14.90;99.90
18781;DHT22;9519;51.890;8.970;2022-10-16T08:02:33;15.10;99.90
18781;DHT22;9519;51.890;8.970;2022-10-16T08:07:35;15.30;99.90
18781;DHT22;9519;51.890;8.970;2022-10-16T08:12:37;15.40;99.90
18781;DHT22;9519;51.890;8.970;2022-10-16T08:17:41;15.50;99.90
18781;DHT22;9519;51.890;8.970;2022-10-16T08:22:43;15.60;99.90
18781;DHT22;9519;51.890;8.970;2022-10-16T08:27:46;15.70;99.90
18781;DHT22;9519;51.890;8.970;2022-10-16T08:32:49;15.80;99.90
18781;DHT22;9519;51.890;8.970;2022-10-16T08:37:51;15.80;99.90
18781;DHT22;9519;51.890;8.970;2022-10-16T08:48:35;15.90;99.90
18781;DHT22;9519;51.890;8.970;2022-10-16T08:53:48;16.00;99.90
18781;DHT22;9519;51.890;8.970;2022-10-16T08:58:54;16.00;99.90
18781;DHT22;9519;51.890;8.970;2022-10-16T09:04:17;16.10;99.90
18781;DHT22;9519;51.890;8.970;2022-10-16T09:09:49;16.20;99.90
18781;DHT22;9519;51.890;8.970;2022-10-16T09:15:17;16.30;99.90
18781;DHT22;9519;51.890;8.970;2022-10-16T09:20:38;16.50;99.90
18781;DHT22;9519;51.890;8.970;2022-10-16T09:25:48;16.60;99.90
18781;DHT22;9519;51.890;8.970;2022-10-16T09:30:51;16.70;99.90
18781;DHT22;9519;51.890;8.970;2022-10-16T09:35:56;16.80;99.90
18781;DHT22;9519;51.890;8.970;2022-10-16T09:41:02;16.90;99.90
18781;DHT22;9519;51.890;8.970;2022-10-16T09:46:22;17.00;99.90
18781;DHT22;9519;51.890;8.970;2022-10-16T09:51:32;17.10;99.90
18781;DHT22;9519;51.890;8.970;2022-10-16T09:56:37;17.30;99.90
18781;DHT22;9519;51.890;8.970;2022-10-16T10:01:41;17.40;99.90
18781;DHT22;9519;51.890;8.970;2022-10-16T10:06:49;17.40;99.90
18781;DHT22;9519;51.890;8.970;2022-10-16T10:11:55;17.50;99.90
18781;DHT22;9519;51.890;8.970;2022-10-16T10:17:12;17.50;99.30
18781;DHT22;9519;51.890;8.970;2022-10-16T10:22:24;17.50;98.80
18781;DHT22;9519;51.890;8.970;2022-10-16T10:27:36;17.40;98.40
18781;DHT22;9519;51.890;8.970;2022-10-16T10:32:55;17.30;98.60
18781;DHT22;9519;51.890;8.970;2022-10-16T10:38:20;17.40;98.90
18781;DHT22;9519;51.890;8.970;2022-10-16T10:43:43;17.50;99.10
18781;DHT22;9519;51.890;8.970;2022-10-16T10:49:05;17.70;98.50
18781;DHT22;9519;51.890;8.970;2022-10-16T10:54:24;17.70;96.90
18781;DHT22;9519;51.890;8.970;2022-10-16T11:00:00;17.70;96.80
18781;DHT22;9519;51.890;8.970;2022-10-16T11:05:36;17.80;96.60
18781;DHT22;9519;51.890;8.970;2022-10-16T11:10:50;18.00;96.10
18781;DHT22;9519;51.890;8.970;2022-10-16T11:15:58;18.10;95.50
18781;DHT22;9519;51.890;8.970;2022-10-16T11:21:05;18.20;95.40
18781;DHT22;9519;51.890;8.970;2022-10-16T11:26:16;18.20;95.00
18781;DHT22;9519;51.890;8.970;2022-10-16T11:31:26;18.30;94.60
18781;DHT22;9519;51.890;8.970;2022-10-16T11:36:38;18.30;94.80
18781;DHT22;9519;51.890;8.970;2022-10-16T11:41:49;18.40;94.50
18781;DHT22;9519;51.890;8.970;2022-10-16T11:47:03;18.50;94.40
18781;DHT22;9519;51.890;8.970;2022-10-16T11:52:19;18.60;93.70
18781;DHT22;9519;51.890;8.970;2022-10-16T11:57:28;18.60;93.30
18781;DHT22;9519;51.890;8.970;2022-10-16T12:02:41;18.70;93.50
18781;DHT22;9519;51.890;8.970;2022-10-16T12:08:01;18.70;93.40
18781;DHT22;9519;51.890;8.970;2022-10-16T12:13:31;18.80;93.40
18781;DHT22;9519;51.890;8.970;2022-10-16T12:18:34;18.80;93.60
18781;DHT22;9519;51.890;8.970;2022-10-16T12:23:37;18.90;93.50
18781;DHT22;9519;51.890;8.970;2022-10-16T12:28:49;19.00;93.40
18781;DHT22;9519;51.890;8.970;2022-10-16T12:33:57;19.00;93.10
18781;DHT22;9519;51.890;8.970;2022-10-16T12:39:02;19.00;93.60
18781;DHT22;9519;51.890;8.970;2022-10-16T12:44:22;19.00;93.20
18781;DHT22;9519;51.890;8.970;2022-10-16T12:49:34;19.10;93.00
18781;DHT22;9519;51.890;8.970;2022-10-16T12:54:38;19.10;92.50
18781;DHT22;9519;51.890;8.970;2022-10-16T12:59:47;19.10;91.80
18781;DHT22;9519;51.890;8.970;2022-10-16T13:05:12;19.20;91.40
18781;DHT22;9519;51.890;8.970;2022-10-16T13:10:28;19.30;91.70
18781;DHT22;9519;51.890;8.970;2022-10-16T13:15:51;19.40;91.60
18781;DHT22;9519;51.890;8.970;2022-10-16T13:21:15;19.50;91.20
18781;DHT22;9519;51.890;8.970;2022-10-16T13:26:32;19.70;91.10
18781;DHT22;9519;51.890;8.970;2022-10-16T13:31:47;19.90;90.80
18781;DHT22;9519;51.890;8.970;2022-10-16T13:36:51;19.90;90.60
18781;DHT22;9519;51.890;8.970;2022-10-16T13:42:01;19.70;90.60
18781;DHT22;9519;51.890;8.970;2022-10-16T13:47:15;19.60;90.60
18781;DHT22;9519;51.890;8.970;2022-10-16T13:52:20;19.40;90.40
18781;DHT22;9519;51.890;8.970;2022-10-16T13:57:23;19.30;90.60
18781;DHT22;9519;51.890;8.970;2022-10-16T14:02:30;19.30;91.30
18781;DHT22;9519;51.890;8.970;2022-10-16T14:07:35;19.40;90.60
18781;DHT22;9519;51.890;8.970;2022-10-16T14:12:39;19.40;91.00
18781;DHT22;9519;51.890;8.970;2022-10-16T14:17:50;19.60;91.20
18781;DHT22;9519;51.890;8.970;2022-10-16T14:23:02;19.70;90.70
18781;DHT22;9519;51.890;8.970;2022-10-16T14:28:16;19.80;90.60
18781;DHT22;9519;51.890;8.970;2022-10-16T14:33:23;19.90;90.40
18781;DHT22;9519;51.890;8.970;2022-10-16T14:38:33;20.00;90.50
18781;DHT22;9519;51.890;8.970;2022-10-16T14:43:37;20.10;90.70
18781;DHT22;9519;51.890;8.970;2022-10-16T14:48:43;20.30;90.40
18781;DHT22;9519;51.890;8.970;2022-10-16T14:53:49;20.50;90.40
18781;DHT22;9519;51.890;8.970;2022-10-16T14:58:52;20.80;90.40
18781;DHT22;9519;51.890;8.970;2022-10-16T15:03:56;21.00;89.10
18781;DHT22;9519;51.890;8.970;2022-10-16T15:08:58;21.20;89.70
18781;DHT22;9519;51.890;8.970;2022-10-16T15:14:00;21.30;88.10
18781;DHT22;9519;51.890;8.970;2022-10-16T15:19:05;21.20;88.00
18781;DHT22;9519;51.890;8.970;2022-10-16T15:24:11;21.20;88.20
18781;DHT22;9519;51.890;8.970;2022-10-16T15:29:14;21.10;88.40
18781;DHT22;9519;51.890;8.970;2022-10-16T15:34:18;20.90;88.70
18781;DHT22;9519;51.890;8.970;2022-10-16T15:39:20;20.70;89.10
18781;DHT22;9519;51.890;8.970;2022-10-16T15:44:22;20.50;89.70
18781;DHT22;9519;51.890;8.970;2022-10-16T15:49:28;20.30;89.60
18781;DHT22;9519;51.890;8.970;2022-10-16T15:54:30;20.10;90.00
18781;DHT22;9519;51.890;8.970;2022-10-16T15:59:32;19.80;90.10
18781;DHT22;9519;51.890;8.970;2022-10-16T16:04:35;19.60;90.40
18781;DHT22;9519;51.890;8.970;2022-10-16T16:09:37;19.30;90.60
18781;DHT22;9519;51.890;8.970;2022-10-16T16:14:40;19.10;90.80
18781;DHT22;9519;51.890;8.970;2022-10-16T16:19:45;18.80;91.00
18781;DHT22;9519;51.890;8.970;2022-10-16T16:24:48;18.60;91.30
18781;DHT22;9519;51.890;8.970;2022-10-16T16:29:50;18.50;91.50
18781;DHT22;9519;51.890;8.970;2022-10-16T16:34:53;18.30;91.70
18781;DHT22;9519;51.890;8.970;2022-10-16T16:39:55;18.10;91.90
18781;DHT22;9519;51.890;8.970;2022-10-16T16:44:59;18.00;92.00
18781;DHT22;9519;51.890;8.970;2022-10-16T16:50:02;17.90;92.20
18781;DHT22;9519;51.890;8.970;2022-10-16T16:55:08;17.70;92.40
18781;DHT22;9519;51.890;8.970;2022-10-16T17:00:12;17.60;92.60
18781;DHT22;9519;51.890;8.970;2022-10-16T17:05:17;17.50;92.80
18781;DHT22;9519;51.890;8.970;2022-10-16T17:10:19;17.40;93.00
18781;DHT22;9519;51.890;8.970;2022-10-16T17:15:22;17.40;93.10
18781;DHT22;9519;51.890;8.970;2022-10-16T17:20:25;17.30;93.30
18781;DHT22;9519;51.890;8.970;2022-10-16T17:25:27;17.20;93.50
18781;DHT22;9519;51.890;8.970;2022-10-16T17:30:29;17.10;93.70
18781;DHT22;9519;51.890;8.970;2022-10-16T17:35:37;17.10;93.90
18781;DHT22;9519;51.890;8.970;2022-10-16T17:40:40;17.10;94.20
18781;DHT22;9519;51.890;8.970;2022-10-16T17:45:43;17.00;94.30
18781;DHT22;9519;51.890;8.970;2022-10-16T17:50:46;16.90;94.50
18781;DHT22;9519;51.890;8.970;2022-10-16T17:55:49;16.90;94.80
18781;DHT22;9519;51.890;8.970;2022-10-16T18:00:56;16.80;94.90
18781;DHT22;9519;51.890;8.970;2022-10-16T18:06:00;16.80;95.10
18781;DHT22;9519;51.890;8.970;2022-10-16T18:11:04;16.70;95.40
18781;DHT22;9519;51.890;8.970;2022-10-16T18:16:09;16.60;95.40
18781;DHT22;9519;51.890;8.970;2022-10-16T18:21:16;16.60;95.60
18781;DHT22;9519;51.890;8.970;2022-10-16T18:26:20;16.50;95.70
18781;DHT22;9519;51.890;8.970;2022-10-16T18:31:23;16.50;96.20
18781;DHT22;9519;51.890;8.970;2022-10-16T18:36:30;16.40;96.00
18781;DHT22;9519;51.890;8.970;2022-10-16T18:41:34;16.40;96.10
18781;DHT22;9519;51.890;8.970;2022-10-16T18:46:38;16.40;96.50
18781;DHT22;9519;51.890;8.970;2022-10-16T18:51:42;16.30;96.40
18781;DHT22;9519;51.890;8.970;2022-10-16T18:56:44;16.30;96.50
18781;DHT22;9519;51.890;8.970;2022-10-16T19:01:48;16.30;96.90
18781;DHT22;9519;51.890;8.970;2022-10-16T19:06:53;16.20;96.70
18781;DHT22;9519;51.890;8.970;2022-10-16T19:11:55;16.10;96.80
18781;DHT22;9519;51.890;8.970;2022-10-16T19:16:59;16.10;96.90
18781;DHT22;9519;51.890;8.970;2022-10-16T19:22:02;16.10;97.10
18781;DHT22;9519;51.890;8.970;2022-10-16T19:27:14;16.00;97.30
18781;DHT22;9519;51.890;8.970;2022-10-16T19:32:16;16.00;97.40
18781;DHT22;9519;51.890;8.970;2022-10-16T19:37:20;15.90;97.50
18781;DHT22;9519;51.890;8.970;2022-10-16T19:42:25;15.90;97.60
18781;DHT22;9519;51.890;8.970;2022-10-16T19:47:27;15.90;97.70
18781;DHT22;9519;51.890;8.970;2022-10-16T19:52:31;15.90;97.80
18781;DHT22;9519;51.890;8.970;2022-10-16T19:57:34;15.90;97.90
18781;DHT22;9519;51.890;8.970;2022-10-16T20:02:37;15.90;98.00
18781;DHT22;9519;51.890;8.970;2022-10-16T20:07:40;15.80;98.00
18781;DHT22;9519;51.890;8.970;2022-10-16T20:12:43;15.80;98.10
18781;DHT22;9519;51.890;8.970;2022-10-16T20:17:45;15.80;98.30
18781;DHT22;9519;51.890;8.970;2022-10-16T20:22:48;15.70;98.40
18781;DHT22;9519;51.890;8.970;2022-10-16T20:27:50;15.70;98.50
18781;DHT22;9519;51.890;8.970;2022-10-16T20:32:52;15.70;98.70
18781;DHT22;9519;51.890;8.970;2022-10-16T20:37:57;15.70;98.80
18781;DHT22;9519;51.890;8.970;2022-10-16T20:43:00;15.70;98.90
18781;DHT22;9519;51.890;8.970;2022-10-16T20:48:02;15.70;99.10
18781;DHT22;9519;51.890;8.970;2022-10-16T20:53:07;15.80;99.30
18781;DHT22;9519;51.890;8.970;2022-10-16T20:58:09;15.80;99.50
18781;DHT22;9519;51.890;8.970;2022-10-16T21:03:12;15.80;99.60
18781;DHT22;9519;51.890;8.970;2022-10-16T21:08:15;15.80;99.80
18781;DHT22;9519;51.890;8.970;2022-10-16T21:13:17;15.80;99.90
18781;DHT22;9519;51.890;8.970;2022-10-16T21:18:19;15.80;99.90
18781;DHT22;9519;51.890;8.970;2022-10-16T21:23:23;15.80;99.90
18781;DHT22;9519;51.890;8.970;2022-10-16T21:28:25;15.80;99.90
18781;DHT22;9519;51.890;8.970;2022-10-16T21:33:28;15.80;99.90
18781;DHT22;9519;51.890;8.970;2022-10-16T21:38:32;15.80;99.90
18781;DHT22;9519;51.890;8.970;2022-10-16T21:43:34;15.80;99.90
18781;DHT22;9519;51.890;8.970;2022-10-16T21:48:36;15.70;99.90
18781;DHT22;9519;51.890;8.970;2022-10-16T21:53:40;15.70;99.90
18781;DHT22;9519;51.890;8.970;2022-10-16T21:58:44;15.70;99.90
18781;DHT22;9519;51.890;8.970;2022-10-16T22:03:46;15.70;99.90
18781;DHT22;9519;51.890;8.970;2022-10-16T22:08:52;15.60;99.90
18781;DHT22;9519;51.890;8.970;2022-10-16T22:13:55;15.60;99.90
18781;DHT22;9519;51.890;8.970;2022-10-16T22:18:58;15.50;99.90
18781;DHT22;9519;51.890;8.970;2022-10-16T22:24:05;15.50;99.90
18781;DHT22;9519;51.890;8.970;2022-10-16T22:29:10;15.50;99.90
18781;DHT22;9519;51.890;8.970;2022-10-16T22:34:13;15.50;99.90
18781;DHT22;9519;51.890;8.970;2022-10-16T22:39:17;15.50;99.90
18781;DHT22;9519;51.890;8.970;2022-10-16T22:44:19;15.40;99.90
18781;DHT22;9519;51.890;8.970;2022-10-16T22:49:22;15.50;99.90
18781;DHT22;9519;51.890;8.970;2022-10-16T22:54:25;15.40;99.90
18781;DHT22;9519;51.890;8.970;2022-10-16T22:59:28;15.40;99.90
18781;DHT22;9519;51.890;8.970;2022-10-16T23:04:30;15.30;99.90
18781;DHT22;9519;51.890;8.970;2022-10-16T23:09:34;15.30;99.90
18781;DHT22;9519;51.890;8.970;2022-10-16T23:14:36;15.20;99.90
18781;DHT22;9519;51.890;8.970;2022-10-16T23:19:39;15.20;99.90
18781;DHT22;9519;51.890;8.970;2022-10-16T23:24:42;15.10;99.90
18781;DHT22;9519;51.890;8.970;2022-10-16T23:29:44;15.10;99.90
18781;DHT22;9519;51.890;8.970;2022-10-16T23:34:46;15.10;99.90
18781;DHT22;9519;51.890;8.970;2022-10-16T23:39:50;15.00;99.90
18781;DHT22;9519;51.890;8.970;2022-10-16T23:44:53;14.90;99.90
18781;DHT22;9519;51.890;8.970;2022-10-16T23:49:55;14.90;99.90
18781;DHT22;9519;51.890;8.970;2022-10-16T23:54:59;14.80;99.90
